sensor_id;sensor_type;location;lat;lon;timestamp;pressure;altitude;pressure_sealevel;temperature;humidity
40708;BME280;26392;42.696;23.350;2023-05-01T00:01:59;95271.50;;;11.29;100.00
40708;BME280;26392;42.696;23.350;2023-05-01T00:04:26;95276.84;;;11.18;100.00
40708;BME280;26392;42.696;23.350;2023-05-01T00:06:51;95272.22;;;11.19;100.00
40708;BME280;26392;42.696;23.350;2023-05-01T00:09:16;95283.28;;;11.07;100.00
40708;BME280;26392;42.696;23.350;2023-05-01T00:11:42;95281.31;;;11.03;100.00
40708;BME280;26392;42.696;23.350;2023-05-01T00:14:08;95282.88;;;10.93;100.00
40708;BME280;26392;42.696;23.350;2023-05-01T00:16:33;95283.59;;;10.84;100.00
40708;BME280;26392;42.696;23.350;2023-05-01T00:19:00;95288.38;;;10.71;100.00
40708;BME280;26392;42.696;23.350;2023-05-01T00:21:26;95288.03;;;10.63;100.00
40708;BME280;26392;42.696;23.350;2023-05-01T00:23:52;95282.97;;;10.49;100.00
40708;BME280;26392;42.696;23.350;2023-05-01T00:26:18;95287.91;;;10.52;100.00
40708;BME280;26392;42.696;23.350;2023-05-01T00:28:43;95286.78;;;10.48;100.00
40708;BME280;26392;42.696;23.350;2023-05-01T00:31:09;95287.53;;;10.44;100.00
40708;BME280;26392;42.696;23.350;2023-05-01T00:33:34;95291.66;;;10.46;100.00
40708;BME280;26392;42.696;23.350;2023-05-01T00:36:00;95296.78;;;10.43;100.00
40708;BME280;26392;42.696;23.350;2023-05-01T00:38:25;95290.16;;;10.34;100.00
40708;BME280;26392;42.696;23.350;2023-05-01T00:40:51;95310.22;;;10.27;100.00
40708;BME280;26392;42.696;23.350;2023-05-01T00:43:16;95319.56;;;10.15;100.00
40708;BME280;26392;42.696;23.350;2023-05-01T00:45:43;95306.38;;;10.06;100.00
40708;BME280;26392;42.696;23.350;2023-05-01T00:48:09;95307.41;;;10.00;100.00
40708;BME280;26392;42.696;23.350;2023-05-01T00:50:35;95304.84;;;9.94;100.00
40708;BME280;26392;42.696;23.350;2023-05-01T00:53:01;95312.75;;;9.95;100.00
40708;BME280;26392;42.696;23.350;2023-05-01T00:55:27;95310.47;;;9.87;100.00
40708;BME280;26392;42.696;23.350;2023-05-01T00:57:54;95317.00;;;9.86;100.00
40708;BME280;26392;42.696;23.350;2023-05-01T01:00:20;95317.00;;;9.86;100.00
40708;BME280;26392;42.696;23.350;2023-05-01T01:02:49;95307.66;;;9.82;100.00
40708;BME280;26392;42.696;23.350;2023-05-01T01:05:14;95305.03;;;9.87;100.00
40708;BME280;26392;42.696;23.350;2023-05-01T01:07:48;95316.81;;;9.93;100.00
40708;BME280;26392;42.696;23.350;2023-05-01T01:13:29;95323.38;;;9.75;100.00
40708;BME280;26392;42.696;23.350;2023-05-01T01:16:11;95320.81;;;9.68;100.00
40708;BME280;26392;42.696;23.350;2023-05-01T01:18:52;95324.75;;;9.60;100.00
40708;BME280;26392;42.696;23.350;2023-05-01T01:21:38;95329.88;;;9.57;100.00
40708;BME280;26392;42.696;23.350;2023-05-01T01:24:47;95331.59;;;9.63;100.00
40708;BME280;26392;42.696;23.350;2023-05-01T01:30:49;95335.22;;;9.52;100.00
40708;BME280;26392;42.696;23.350;2023-05-01T01:39:04;95335.59;;;9.38;100.00
40708;BME280;26392;42.696;23.350;2023-05-01T01:41:33;95340.13;;;9.33;100.00
40708;BME280;26392;42.696;23.350;2023-05-01T01:44:04;95320.50;;;9.31;100.00
40708;BME280;26392;42.696;23.350;2023-05-01T01:46:36;95335.91;;;9.42;100.00
40708;BME280;26392;42.696;23.350;2023-05-01T01:49:05;95333.19;;;9.42;100.00
40708;BME280;26392;42.696;23.350;2023-05-01T01:51:34;95313.97;;;9.32;100.00
40708;BME280;26392;42.696;23.350;2023-05-01T01:54:03;95319.50;;;9.37;100.00
40708;BME280;26392;42.696;23.350;2023-05-01T01:56:29;95331.56;;;9.41;100.00
40708;BME280;26392;42.696;23.350;2023-05-01T01:58:59;95316.59;;;9.44;100.00
40708;BME280;26392;42.696;23.350;2023-05-01T02:01:25;95325.63;;;9.44;100.00
40708;BME280;26392;42.696;23.350;2023-05-01T02:03:53;95317.06;;;9.35;100.00
40708;BME280;26392;42.696;23.350;2023-05-01T02:06:20;95326.09;;;9.24;100.00
40708;BME280;26392;42.696;23.350;2023-05-01T02:08:47;95331.13;;;9.32;100.00
40708;BME280;26392;42.696;23.350;2023-05-01T02:11:17;95328.66;;;9.14;100.00
40708;BME280;26392;42.696;23.350;2023-05-01T02:13:44;95329.16;;;9.28;100.00
40708;BME280;26392;42.696;23.350;2023-05-01T02:16:10;95332.91;;;9.27;100.00
40708;BME280;26392;42.696;23.350;2023-05-01T02:18:37;95327.97;;;9.24;100.00
40708;BME280;26392;42.696;23.350;2023-05-01T02:21:04;95319.59;;;9.25;100.00
40708;BME280;26392;42.696;23.350;2023-05-01T02:23:29;95337.53;;;9.26;100.00
40708;BME280;26392;42.696;23.350;2023-05-01T02:25:57;95319.59;;;9.25;100.00
40708;BME280;26392;42.696;23.350;2023-05-01T02:28:25;95323.38;;;9.24;100.00
40708;BME280;26392;42.696;23.350;2023-05-01T02:30:52;95332.19;;;9.14;100.00
40708;BME280;26392;42.696;23.350;2023-05-01T02:33:17;95329.88;;;9.06;100.00
40708;BME280;26392;42.696;23.350;2023-05-01T02:35:44;95337.00;;;8.95;100.00
40708;BME280;26392;42.696;23.350;2023-05-01T02:38:12;95338.25;;;8.88;100.00
40708;BME280;26392;42.696;23.350;2023-05-01T02:40:40;95330.38;;;8.74;100.00
40708;BME280;26392;42.696;23.350;2023-05-01T02:43:09;95334.75;;;8.76;100.00
40708;BME280;26392;42.696;23.350;2023-05-01T02:45:37;95331.38;;;8.68;100.00
40708;BME280;26392;42.696;23.350;2023-05-01T02:48:05;95334.31;;;8.67;100.00
40708;BME280;26392;42.696;23.350;2023-05-01T02:50:33;95329.97;;;8.66;100.00
40708;BME280;26392;42.696;23.350;2023-05-01T02:52:59;95338.66;;;8.68;100.00
40708;BME280;26392;42.696;23.350;2023-05-01T02:55:25;95343.31;;;8.56;100.00
40708;BME280;26392;42.696;23.350;2023-05-01T02:57:51;95330.63;;;8.44;100.00
40708;BME280;26392;42.696;23.350;2023-05-01T03:00:16;95344.63;;;8.53;100.00
40708;BME280;26392;42.696;23.350;2023-05-01T03:02:43;95345.22;;;8.55;100.00
40708;BME280;26392;42.696;23.350;2023-05-01T03:05:08;95352.22;;;8.39;100.00
40708;BME280;26392;42.696;23.350;2023-05-01T03:07:34;95356.22;;;8.37;100.00
40708;BME280;26392;42.696;23.350;2023-05-01T03:10:03;95362.28;;;8.39;100.00
40708;BME280;26392;42.696;23.350;2023-05-01T03:12:29;95351.19;;;8.40;100.00
40708;BME280;26392;42.696;23.350;2023-05-01T03:14:55;95356.00;;;8.38;100.00
40708;BME280;26392;42.696;23.350;2023-05-01T03:17:21;95331.81;;;8.25;100.00
40708;BME280;26392;42.696;23.350;2023-05-01T03:19:47;95356.38;;;8.30;100.00
40708;BME280;26392;42.696;23.350;2023-05-01T03:22:13;95346.03;;;8.15;100.00
40708;BME280;26392;42.696;23.350;2023-05-01T03:24:39;95362.16;;;8.22;100.00
40708;BME280;26392;42.696;23.350;2023-05-01T03:27:04;95361.44;;;8.26;100.00
40708;BME280;26392;42.696;23.350;2023-05-01T03:29:29;95369.13;;;8.29;100.00
40708;BME280;26392;42.696;23.350;2023-05-01T03:31:55;95372.88;;;8.28;100.00
40708;BME280;26392;42.696;23.350;2023-05-01T03:34:22;95367.25;;;8.18;100.00
40708;BME280;26392;42.696;23.350;2023-05-01T03:36:47;95375.13;;;8.20;100.00
40708;BME280;26392;42.696;23.350;2023-05-01T03:39:13;95374.09;;;8.21;100.00
40708;BME280;26392;42.696;23.350;2023-05-01T03:41:38;95375.50;;;8.23;100.00
40708;BME280;26392;42.696;23.350;2023-05-01T03:44:03;95373.72;;;8.29;100.00
40708;BME280;26392;42.696;23.350;2023-05-01T03:46:29;95374.06;;;8.33;100.00
40708;BME280;26392;42.696;23.350;2023-05-01T03:48:54;95383.63;;;8.35;100.00
40708;BME280;26392;42.696;23.350;2023-05-01T03:51:20;95378.06;;;8.42;100.00
40708;BME280;26392;42.696;23.350;2023-05-01T03:53:45;95380.75;;;8.54;100.00
40708;BME280;26392;42.696;23.350;2023-05-01T03:56:10;95372.00;;;8.63;100.00
40708;BME280;26392;42.696;23.350;2023-05-01T03:58:36;95383.50;;;8.82;100.00
40708;BME280;26392;42.696;23.350;2023-05-01T04:01:01;95373.69;;;9.10;100.00
40708;BME280;26392;42.696;23.350;2023-05-01T04:03:28;95390.03;;;9.60;100.00
40708;BME280;26392;42.696;23.350;2023-05-01T04:05:53;95376.91;;;9.91;100.00
40708;BME280;26392;42.696;23.350;2023-05-01T04:08:19;95380.66;;;10.24;100.00
40708;BME280;26392;42.696;23.350;2023-05-01T04:10:44;95386.63;;;10.60;100.00
40708;BME280;26392;42.696;23.350;2023-05-01T04:13:09;95383.00;;;10.98;100.00
40708;BME280;26392;42.696;23.350;2023-05-01T04:15:36;95383.38;;;11.39;100.00
40708;BME280;26392;42.696;23.350;2023-05-01T04:18:03;95389.31;;;11.90;100.00
40708;BME280;26392;42.696;23.350;2023-05-01T04:20:28;95381.53;;;12.57;100.00
40708;BME280;26392;42.696;23.350;2023-05-01T04:22:53;95384.59;;;13.49;100.00
40708;BME280;26392;42.696;23.350;2023-05-01T04:25:19;95379.63;;;14.22;100.00
40708;BME280;26392;42.696;23.350;2023-05-01T04:27:44;95383.19;;;15.24;100.00
40708;BME280;26392;42.696;23.350;2023-05-01T04:30:10;95384.09;;;15.93;100.00
40708;BME280;26392;42.696;23.350;2023-05-01T04:32:35;95382.91;;;16.62;92.23
40708;BME280;26392;42.696;23.350;2023-05-01T04:35:01;95390.75;;;17.22;80.43
40708;BME280;26392;42.696;23.350;2023-05-01T04:37:27;95389.41;;;17.81;75.11
40708;BME280;26392;42.696;23.350;2023-05-01T04:39:52;95374.25;;;18.30;68.93
40708;BME280;26392;42.696;23.350;2023-05-01T04:42:19;95381.16;;;18.61;64.54
40708;BME280;26392;42.696;23.350;2023-05-01T04:44:45;95384.44;;;18.63;63.85
40708;BME280;26392;42.696;23.350;2023-05-01T04:47:12;95393.72;;;18.20;63.35
40708;BME280;26392;42.696;23.350;2023-05-01T04:49:38;95402.00;;;17.44;66.39
40708;BME280;26392;42.696;23.350;2023-05-01T04:52:03;95391.09;;;16.67;70.86
40708;BME280;26392;42.696;23.350;2023-05-01T04:54:28;95390.56;;;15.67;78.91
40708;BME280;26392;42.696;23.350;2023-05-01T04:56:54;95401.00;;;14.30;92.38
40708;BME280;26392;42.696;23.350;2023-05-01T04:59:19;95401.88;;;13.85;100.00
40708;BME280;26392;42.696;23.350;2023-05-01T05:01:45;95406.78;;;13.47;100.00
40708;BME280;26392;42.696;23.350;2023-05-01T05:04:10;95397.47;;;12.75;100.00
40708;BME280;26392;42.696;23.350;2023-05-01T05:06:35;95410.22;;;12.54;100.00
40708;BME280;26392;42.696;23.350;2023-05-01T05:09:01;95416.00;;;12.20;100.00
40708;BME280;26392;42.696;23.350;2023-05-01T05:11:26;95414.19;;;11.94;100.00
40708;BME280;26392;42.696;23.350;2023-05-01T05:13:51;95427.22;;;11.86;100.00
40708;BME280;26392;42.696;23.350;2023-05-01T05:16:18;95419.84;;;11.87;100.00
40708;BME280;26392;42.696;23.350;2023-05-01T05:18:43;95429.47;;;11.95;100.00
40708;BME280;26392;42.696;23.350;2023-05-01T05:21:09;95433.31;;;11.94;100.00
40708;BME280;26392;42.696;23.350;2023-05-01T05:23:35;95436.50;;;11.58;100.00
40708;BME280;26392;42.696;23.350;2023-05-01T05:26:01;95431.78;;;11.81;100.00
40708;BME280;26392;42.696;23.350;2023-05-01T05:28:27;95436.25;;;11.87;100.00
40708;BME280;26392;42.696;23.350;2023-05-01T05:30:54;95434.28;;;11.82;100.00
40708;BME280;26392;42.696;23.350;2023-05-01T05:33:19;95432.78;;;11.70;100.00
40708;BME280;26392;42.696;23.350;2023-05-01T05:35:45;95431.34;;;11.89;100.00
40708;BME280;26392;42.696;23.350;2023-05-01T05:38:10;95433.84;;;11.96;100.00
40708;BME280;26392;42.696;23.350;2023-05-01T05:40:36;95428.03;;;12.19;100.00
40708;BME280;26392;42.696;23.350;2023-05-01T05:43:01;95437.19;;;12.40;100.00
40708;BME280;26392;42.696;23.350;2023-05-01T05:45:27;95437.00;;;12.57;100.00
40708;BME280;26392;42.696;23.350;2023-05-01T05:47:53;95438.13;;;12.61;100.00
40708;BME280;26392;42.696;23.350;2023-05-01T05:50:18;95436.97;;;12.47;100.00
40708;BME280;26392;42.696;23.350;2023-05-01T05:52:44;95435.66;;;12.60;100.00
40708;BME280;26392;42.696;23.350;2023-05-01T05:55:09;95437.56;;;12.59;100.00
40708;BME280;26392;42.696;23.350;2023-05-01T05:57:35;95439.50;;;12.59;100.00
40708;BME280;26392;42.696;23.350;2023-05-01T06:00:02;95448.28;;;12.71;100.00
40708;BME280;26392;42.696;23.350;2023-05-01T06:02:30;95444.25;;;12.79;100.00
40708;BME280;26392;42.696;23.350;2023-05-01T06:04:56;95447.00;;;12.84;100.00
40708;BME280;26392;42.696;23.350;2023-05-01T06:07:22;95451.91;;;12.82;100.00
40708;BME280;26392;42.696;23.350;2023-05-01T06:09:48;95462.84;;;12.82;100.00
40708;BME280;26392;42.696;23.350;2023-05-01T06:12:13;95460.69;;;12.89;100.00
40708;BME280;26392;42.696;23.350;2023-05-01T06:14:38;95456.72;;;13.17;100.00
40708;BME280;26392;42.696;23.350;2023-05-01T06:17:05;95444.97;;;13.16;100.00
40708;BME280;26392;42.696;23.350;2023-05-01T06:19:31;95455.03;;;13.06;100.00
40708;BME280;26392;42.696;23.350;2023-05-01T06:21:56;95451.53;;;13.20;100.00
40708;BME280;26392;42.696;23.350;2023-05-01T06:24:22;95453.78;;;13.29;100.00
40708;BME280;26392;42.696;23.350;2023-05-01T06:26:47;95453.81;;;13.49;100.00
40708;BME280;26392;42.696;23.350;2023-05-01T06:29:12;95459.59;;;13.63;100.00
40708;BME280;26392;42.696;23.350;2023-05-01T06:31:38;95459.06;;;13.66;100.00
40708;BME280;26392;42.696;23.350;2023-05-01T06:34:03;95459.38;;;13.70;100.00
40708;BME280;26392;42.696;23.350;2023-05-01T06:36:28;95457.16;;;13.77;100.00
40708;BME280;26392;42.696;23.350;2023-05-01T06:38:55;95458.28;;;13.86;100.00
40708;BME280;26392;42.696;23.350;2023-05-01T06:41:21;95459.66;;;13.88;100.00
40708;BME280;26392;42.696;23.350;2023-05-01T06:43:46;95459.41;;;14.00;100.00
40708;BME280;26392;42.696;23.350;2023-05-01T06:46:12;95450.59;;;13.88;100.00
40708;BME280;26392;42.696;23.350;2023-05-01T06:48:38;95461.06;;;14.12;100.00
40708;BME280;26392;42.696;23.350;2023-05-01T06:51:03;95455.53;;;14.17;100.00
40708;BME280;26392;42.696;23.350;2023-05-01T06:53:29;95454.19;;;14.29;100.00
40708;BME280;26392;42.696;23.350;2023-05-01T06:55:54;95452.25;;;14.40;100.00
40708;BME280;26392;42.696;23.350;2023-05-01T06:58:19;95443.75;;;14.47;100.00
40708;BME280;26392;42.696;23.350;2023-05-01T07:00:45;95456.09;;;14.54;100.00
40708;BME280;26392;42.696;23.350;2023-05-01T07:03:10;95435.25;;;14.59;100.00
40708;BME280;26392;42.696;23.350;2023-05-01T07:05:36;95455.50;;;14.83;100.00
40708;BME280;26392;42.696;23.350;2023-05-01T07:08:01;95459.25;;;15.08;100.00
40708;BME280;26392;42.696;23.350;2023-05-01T07:10:27;95451.28;;;15.11;100.00
40708;BME280;26392;42.696;23.350;2023-05-01T07:12:53;95453.44;;;15.19;100.00
40708;BME280;26392;42.696;23.350;2023-05-01T07:15:18;95459.19;;;15.23;100.00
40708;BME280;26392;42.696;23.350;2023-05-01T07:17:44;95460.31;;;15.22;100.00
40708;BME280;26392;42.696;23.350;2023-05-01T07:20:10;95462.72;;;15.34;100.00
40708;BME280;26392;42.696;23.350;2023-05-01T07:22:36;95464.06;;;15.36;100.00
40708;BME280;26392;42.696;23.350;2023-05-01T07:25:02;95468.16;;;15.49;100.00
40708;BME280;26392;42.696;23.350;2023-05-01T07:27:27;95467.88;;;15.45;100.00
40708;BME280;26392;42.696;23.350;2023-05-01T07:29:54;95458.22;;;15.58;99.80
40708;BME280;26392;42.696;23.350;2023-05-01T07:32:21;95467.25;;;15.69;99.37
40708;BME280;26392;42.696;23.350;2023-05-01T07:34:46;95443.63;;;15.63;99.59
40708;BME280;26392;42.696;23.350;2023-05-01T07:37:12;95460.84;;;15.79;98.94
40708;BME280;26392;42.696;23.350;2023-05-01T07:39:37;95457.81;;;15.85;97.83
40708;BME280;26392;42.696;23.350;2023-05-01T07:42:03;95445.13;;;15.89;96.10
40708;BME280;26392;42.696;23.350;2023-05-01T07:44:28;95465.47;;;15.88;96.43
40708;BME280;26392;42.696;23.350;2023-05-01T07:46:53;95463.19;;;16.01;95.82
40708;BME280;26392;42.696;23.350;2023-05-01T07:49:19;95459.75;;;16.19;92.44
40708;BME280;26392;42.696;23.350;2023-05-01T07:51:44;95461.31;;;16.30;91.85
40708;BME280;26392;42.696;23.350;2023-05-01T07:54:10;95464.69;;;16.22;91.82
40708;BME280;26392;42.696;23.350;2023-05-01T07:56:36;95459.59;;;16.05;95.11
40708;BME280;26392;42.696;23.350;2023-05-01T07:59:01;95459.75;;;16.19;89.60
40708;BME280;26392;42.696;23.350;2023-05-01T08:01:27;95458.38;;;16.22;90.46
40708;BME280;26392;42.696;23.350;2023-05-01T08:03:52;95456.16;;;16.19;92.37
40708;BME280;26392;42.696;23.350;2023-05-01T08:06:18;95452.72;;;16.37;88.98
40708;BME280;26392;42.696;23.350;2023-05-01T08:08:43;95458.38;;;16.51;89.20
40708;BME280;26392;42.696;23.350;2023-05-01T08:11:09;95439.50;;;16.68;83.59
40708;BME280;26392;42.696;23.350;2023-05-01T08:13:34;95460.88;;;16.82;81.60
40708;BME280;26392;42.696;23.350;2023-05-01T08:16:03;95462.50;;;16.83;82.22
40708;BME280;26392;42.696;23.350;2023-05-01T08:18:29;95449.13;;;17.00;80.44
40708;BME280;26392;42.696;23.350;2023-05-01T08:20:55;95459.88;;;16.96;79.87
40708;BME280;26392;42.696;23.350;2023-05-01T08:23:21;95455.63;;;17.09;81.50
40708;BME280;26392;42.696;23.350;2023-05-01T08:25:46;95459.94;;;17.15;76.72
40708;BME280;26392;42.696;23.350;2023-05-01T08:28:15;95457.06;;;17.26;76.01
40708;BME280;26392;42.696;23.350;2023-05-01T08:30:40;95452.72;;;17.43;74.04
40708;BME280;26392;42.696;23.350;2023-05-01T08:33:06;95456.75;;;17.51;70.85
40708;BME280;26392;42.696;23.350;2023-05-01T08:35:31;95454.53;;;17.72;70.75
40708;BME280;26392;42.696;23.350;2023-05-01T08:37:57;95454.34;;;17.87;71.03
40708;BME280;26392;42.696;23.350;2023-05-01T08:40:22;95449.13;;;18.05;67.21
40708;BME280;26392;42.696;23.350;2023-05-01T08:42:50;95454.63;;;18.24;66.72
40708;BME280;26392;42.696;23.350;2023-05-01T08:45:17;95449.91;;;18.43;68.57
40708;BME280;26392;42.696;23.350;2023-05-01T08:47:43;95451.91;;;18.38;66.72
40708;BME280;26392;42.696;23.350;2023-05-01T08:50:10;95451.75;;;17.96;65.57
40708;BME280;26392;42.696;23.350;2023-05-01T08:52:41;95439.97;;;17.91;62.32
40708;BME280;26392;42.696;23.350;2023-05-01T08:55:11;95447.72;;;18.07;60.70
40708;BME280;26392;42.696;23.350;2023-05-01T08:57:37;95447.00;;;18.34;59.03
40708;BME280;26392;42.696;23.350;2023-05-01T09:00:04;95434.41;;;18.61;58.29
40708;BME280;26392;42.696;23.350;2023-05-01T09:02:33;95443.56;;;18.75;54.32
40708;BME280;26392;42.696;23.350;2023-05-01T09:05:01;95439.97;;;18.75;55.25
40708;BME280;26392;42.696;23.350;2023-05-01T09:07:28;95440.41;;;18.82;53.82
40708;BME280;26392;42.696;23.350;2023-05-01T09:09:53;95437.53;;;18.87;52.26
40708;BME280;26392;42.696;23.350;2023-05-01T09:12:26;95437.53;;;18.87;52.80
40708;BME280;26392;42.696;23.350;2023-05-01T09:14:53;95437.16;;;19.08;54.30
40708;BME280;26392;42.696;23.350;2023-05-01T09:17:21;95440.66;;;19.27;52.71
40708;BME280;26392;42.696;23.350;2023-05-01T09:19:47;95429.78;;;19.31;52.59
40708;BME280;26392;42.696;23.350;2023-05-01T09:22:13;95435.31;;;19.44;53.21
40708;BME280;26392;42.696;23.350;2023-05-01T09:24:39;95425.50;;;19.38;54.43
40708;BME280;26392;42.696;23.350;2023-05-01T09:27:05;95434.38;;;19.49;53.67
40708;BME280;26392;42.696;23.350;2023-05-01T09:29:44;95437.63;;;19.65;53.74
40708;BME280;26392;42.696;23.350;2023-05-01T09:32:22;95437.81;;;19.82;52.78
40708;BME280;26392;42.696;23.350;2023-05-01T09:34:50;95434.59;;;20.03;54.90
40708;BME280;26392;42.696;23.350;2023-05-01T09:37:26;95433.44;;;19.54;57.65
40708;BME280;26392;42.696;23.350;2023-05-01T09:40:05;95429.16;;;19.75;52.78
40708;BME280;26392;42.696;23.350;2023-05-01T09:42:32;95429.06;;;20.03;53.43
40708;BME280;26392;42.696;23.350;2023-05-01T09:44:58;95422.22;;;20.00;52.93
40708;BME280;26392;42.696;23.350;2023-05-01T09:47:25;95435.94;;;19.69;53.55
40708;BME280;26392;42.696;23.350;2023-05-01T09:49:55;95442.16;;;19.47;53.38
40708;BME280;26392;42.696;23.350;2023-05-01T09:52:23;95420.78;;;19.25;54.53
40708;BME280;26392;42.696;23.350;2023-05-01T09:55:10;95421.50;;;19.17;52.91
40708;BME280;26392;42.696;23.350;2023-05-01T09:57:36;95428.16;;;19.16;53.40
40708;BME280;26392;42.696;23.350;2023-05-01T10:00:03;95416.88;;;19.54;53.49
40708;BME280;26392;42.696;23.350;2023-05-01T10:02:32;95427.16;;;19.89;53.71
40708;BME280;26392;42.696;23.350;2023-05-01T10:04:58;95412.72;;;19.93;54.21
40708;BME280;26392;42.696;23.350;2023-05-01T10:07:25;95424.88;;;19.55;54.42
40708;BME280;26392;42.696;23.350;2023-05-01T10:09:50;95424.06;;;19.41;55.01
40708;BME280;26392;42.696;23.350;2023-05-01T10:12:27;95414.53;;;19.47;54.14
40708;BME280;26392;42.696;23.350;2023-05-01T10:14:54;95412.47;;;19.53;52.51
40708;BME280;26392;42.696;23.350;2023-05-01T10:17:20;95410.72;;;19.57;52.37
40708;BME280;26392;42.696;23.350;2023-05-01T10:19:46;95405.28;;;19.79;52.97
40708;BME280;26392;42.696;23.350;2023-05-01T10:22:12;95403.31;;;19.80;52.88
40708;BME280;26392;42.696;23.350;2023-05-01T10:24:37;95405.00;;;20.03;51.31
40708;BME280;26392;42.696;23.350;2023-05-01T10:27:05;95411.94;;;19.78;51.75
40708;BME280;26392;42.696;23.350;2023-05-01T10:29:33;95394.69;;;19.95;51.44
40708;BME280;26392;42.696;23.350;2023-05-01T10:32:01;95393.13;;;20.03;50.95
40708;BME280;26392;42.696;23.350;2023-05-01T10:34:29;95398.16;;;20.23;51.10
40708;BME280;26392;42.696;23.350;2023-05-01T10:37:17;95401.44;;;20.03;50.35
40708;BME280;26392;42.696;23.350;2023-05-01T10:39:43;95404.53;;;19.87;50.15
40708;BME280;26392;42.696;23.350;2023-05-01T10:42:09;95396.81;;;19.48;48.72
40708;BME280;26392;42.696;23.350;2023-05-01T10:44:38;95405.00;;;19.67;47.50
40708;BME280;26392;42.696;23.350;2023-05-01T10:50:04;95400.69;;;19.61;49.16
40708;BME280;26392;42.696;23.350;2023-05-01T10:52:30;95396.25;;;19.87;48.56
40708;BME280;26392;42.696;23.350;2023-05-01T10:55:33;95394.31;;;19.74;48.33
40708;BME280;26392;42.696;23.350;2023-05-01T10:57:58;95398.22;;;19.59;48.52
40708;BME280;26392;42.696;23.350;2023-05-01T11:00:24;95395.22;;;19.33;49.08
40708;BME280;26392;42.696;23.350;2023-05-01T11:02:49;95389.44;;;19.43;49.15
40708;BME280;26392;42.696;23.350;2023-05-01T11:05:15;95386.19;;;19.55;48.33
40708;BME280;26392;42.696;23.350;2023-05-01T11:07:40;95386.38;;;19.45;47.56
40708;BME280;26392;42.696;23.350;2023-05-01T11:10:24;95403.94;;;19.63;48.36
40708;BME280;26392;42.696;23.350;2023-05-01T11:12:51;95401.72;;;19.51;48.08
40708;BME280;26392;42.696;23.350;2023-05-01T11:15:46;95400.69;;;19.61;47.96
40708;BME280;26392;42.696;23.350;2023-05-01T11:18:11;95394.66;;;19.59;47.19
40708;BME280;26392;42.696;23.350;2023-05-01T11:20:47;95393.09;;;19.80;46.72
40708;BME280;26392;42.696;23.350;2023-05-01T11:23:16;95388.56;;;19.84;47.81
40708;BME280;26392;42.696;23.350;2023-05-01T11:25:41;95388.47;;;20.12;46.31
40708;BME280;26392;42.696;23.350;2023-05-01T11:28:07;95399.75;;;20.47;45.01
40708;BME280;26392;42.696;23.350;2023-05-01T11:30:40;95397.06;;;20.55;43.80
40708;BME280;26392;42.696;23.350;2023-05-01T11:33:06;95388.22;;;20.67;42.64
40708;BME280;26392;42.696;23.350;2023-05-01T11:35:32;95390.94;;;20.90;43.08
40708;BME280;26392;42.696;23.350;2023-05-01T11:37:58;95397.63;;;20.97;42.20
40708;BME280;26392;42.696;23.350;2023-05-01T11:40:25;95394.16;;;20.92;42.10
40708;BME280;26392;42.696;23.350;2023-05-01T11:42:59;95397.44;;;20.94;42.14
40708;BME280;26392;42.696;23.350;2023-05-01T11:45:24;95386.41;;;21.02;41.96
40708;BME280;26392;42.696;23.350;2023-05-01T11:47:50;95380.78;;;21.25;41.61
40708;BME280;26392;42.696;23.350;2023-05-01T11:50:15;95384.84;;;21.28;41.28
40708;BME280;26392;42.696;23.350;2023-05-01T11:52:50;95380.16;;;21.37;41.50
40708;BME280;26392;42.696;23.350;2023-05-01T11:55:20;95374.31;;;21.38;40.36
40708;BME280;26392;42.696;23.350;2023-05-01T11:57:51;95381.19;;;21.50;42.32
40708;BME280;26392;42.696;23.350;2023-05-01T12:00:38;95385.94;;;21.49;42.28
40708;BME280;26392;42.696;23.350;2023-05-01T12:03:07;95384.13;;;21.62;42.33
40708;BME280;26392;42.696;23.350;2023-05-01T12:05:34;95389.66;;;21.53;42.44
40708;BME280;26392;42.696;23.350;2023-05-01T12:10:53;95388.56;;;21.72;41.72
40708;BME280;26392;42.696;23.350;2023-05-01T12:13:22;95384.66;;;21.90;41.35
40708;BME280;26392;42.696;23.350;2023-05-01T12:15:53;95394.13;;;21.72;40.63
40708;BME280;26392;42.696;23.350;2023-05-01T12:18:19;95400.63;;;21.76;40.41
40708;BME280;26392;42.696;23.350;2023-05-01T12:20:49;95405.22;;;21.80;40.70
40708;BME280;26392;42.696;23.350;2023-05-01T12:23:17;95393.47;;;22.09;40.58
40708;BME280;26392;42.696;23.350;2023-05-01T12:25:44;95382.22;;;22.23;40.86
40708;BME280;26392;42.696;23.350;2023-05-01T12:28:11;95409.31;;;22.00;42.85
40708;BME280;26392;42.696;23.350;2023-05-01T12:30:37;95404.06;;;21.73;43.87
40708;BME280;26392;42.696;23.350;2023-05-01T12:33:11;95400.56;;;21.41;44.85
40708;BME280;26392;42.696;23.350;2023-05-01T12:35:37;95403.38;;;21.10;45.13
40708;BME280;26392;42.696;23.350;2023-05-01T12:38:14;95400.47;;;21.15;44.82
40708;BME280;26392;42.696;23.350;2023-05-01T12:40:58;95401.22;;;20.44;46.04
40708;BME280;26392;42.696;23.350;2023-05-01T12:43:32;95410.53;;;20.26;46.47
40708;BME280;26392;42.696;23.350;2023-05-01T12:45:59;95397.16;;;20.42;46.59
40708;BME280;26392;42.696;23.350;2023-05-01T12:48:24;95397.91;;;20.33;46.60
40708;BME280;26392;42.696;23.350;2023-05-01T12:50:50;95395.94;;;20.34;46.17
40708;BME280;26392;42.696;23.350;2023-05-01T12:53:19;95399.75;;;20.47;46.07
40708;BME280;26392;42.696;23.350;2023-05-01T12:55:49;95392.38;;;20.56;45.55
40708;BME280;26392;42.696;23.350;2023-05-01T12:58:15;95389.28;;;20.58;46.50
40708;BME280;26392;42.696;23.350;2023-05-01T13:00:43;95400.41;;;20.44;47.16
40708;BME280;26392;42.696;23.350;2023-05-01T13:03:09;95413.94;;;20.45;47.06
40708;BME280;26392;42.696;23.350;2023-05-01T13:05:35;95387.38;;;20.67;46.90
40708;BME280;26392;42.696;23.350;2023-05-01T13:08:02;95384.72;;;20.53;46.65